Time;durP1;ratioP1;P1;durP2;ratioP2;P2;SDS_P1;SDS_P2;PMS_P1;PMS_P2;Temp;Humidity;BMP_temperature;BMP_pressure;BME280_temperature;BME280_humidity;BME280_pressure;Samples;Min_cycle;Max_cycle;Signal;HPM_P1;HPM_P2
2022/09/07 00:00:05;;;;;;;12.85;3.28;;;;;;;;;;5002857;28;20336;-66
2022/09/07 00:02:31;;;;;;;12.93;3.00;;;;;;;;;;5005897;28;20033;-65
2022/09/07 00:04:57;;;;;;;10.25;2.92;;;;;;;;;;5004000;28;20083;-66
2022/09/07 00:07:23;;;;;;;10.35;3.10;;;;;;;;;;5019896;28;20545;-66
2022/09/07 00:09:50;;;;;;;12.85;3.05;;;;;;;;;;5000660;28;20908;-66
2022/09/07 00:12:16;;;;;;;10.38;3.15;;;;;;;;;;5030652;28;20024;-65
2022/09/07 00:14:42;;;;;;;11.95;3.50;;;;;;;;;;5024714;28;20128;-65
2022/09/07 00:17:08;;;;;;;9.20;2.50;;;;;;;;;;5004341;28;20527;-65
2022/09/07 00:19:34;;;;;;;10.57;2.70;;;;;;;;;;5024549;28;20383;-65
2022/09/07 00:22:01;;;;;;;11.10;3.17;;;;;;;;;;5021782;28;20589;-65
2022/09/07 00:24:27;;;;;;;16.50;3.20;;;;;;;;;;5025947;28;20120;-65
2022/09/07 00:26:54;;;;;;;10.48;2.70;;;;;;;;;;5022473;28;20140;-66
2022/09/07 00:29:20;;;;;;;12.82;3.03;;;;;;;;;;5023784;28;20036;-66
2022/09/07 00:31:46;;;;;;;10.55;3.05;;;;;;;;;;5022036;28;20432;-65
2022/09/07 00:34:13;;;;;;;13.70;3.03;;;;;;;;;;5022873;28;20510;-65
2022/09/07 00:36:39;;;;;;;15.10;3.38;;;;;;;;;;5025334;28;20031;-66
2022/09/07 00:39:05;;;;;;;11.48;3.00;;;;;;;;;;5020751;28;21251;-65
2022/09/07 00:41:31;;;;;;;13.82;2.92;;;;;;;;;;5008559;28;20739;-65
2022/09/07 00:44:17;;;;;;;13.63;3.03;;;;;;;;;;5004693;28;20133;-67
2022/09/07 00:46:44;;;;;;;10.83;3.00;;;;;;;;;;5023489;28;20035;-65
2022/09/07 00:49:15;;;;;;;12.38;2.80;;;;;;;;;;5020620;28;20036;-66
2022/09/07 00:51:48;;;;;;;11.55;2.92;;;;;;;;;;5011018;28;20358;-66
2022/09/07 00:54:26;;;;;;;10.45;2.63;;;;;;;;;;5022405;28;20506;-66
2022/09/07 00:56:53;;;;;;;9.73;2.38;;;;;;;;;;5021965;28;20574;-65
2022/09/07 00:59:21;;;;;;;9.93;2.60;;;;;;;;;;5025412;28;20295;-66
2022/09/07 01:01:47;;;;;;;12.10;3.10;;;;;;;;;;5004663;28;20938;-65
2022/09/07 01:04:14;;;;;;;10.20;2.47;;;;;;;;;;5022149;28;20492;-65
2022/09/07 01:06:42;;;;;;;9.38;2.60;;;;;;;;;;5025164;28;20595;-65
2022/09/07 01:09:15;;;;;;;11.38;2.85;;;;;;;;;;5018714;28;20037;-65
2022/09/07 01:11:49;;;;;;;11.65;2.85;;;;;;;;;;5021973;28;20871;-65
2022/09/07 01:14:16;;;;;;;11.95;2.83;;;;;;;;;;5021885;28;20033;-65
2022/09/07 01:17:01;;;;;;;8.95;2.40;;;;;;;;;;5006533;28;20020;-65
2022/09/07 01:19:27;;;;;;;8.50;2.50;;;;;;;;;;5007043;28;20033;-65
2022/09/07 01:22:03;;;;;;;9.25;2.28;;;;;;;;;;5005621;28;20435;-65
2022/09/07 01:24:29;;;;;;;9.90;2.58;;;;;;;;;;5020700;28;20041;-66
2022/09/07 01:27:13;;;;;;;9.45;2.38;;;;;;;;;;5019809;28;20108;-67
2022/09/07 01:29:46;;;;;;;11.68;2.70;;;;;;;;;;5005211;28;20507;-65
2022/09/07 01:32:18;;;;;;;11.48;2.50;;;;;;;;;;5004690;28;20060;-65
2022/09/07 01:34:48;;;;;;;15.43;3.22;;;;;;;;;;5021950;28;20755;-65
2022/09/07 01:37:20;;;;;;;12.70;3.15;;;;;;;;;;5025906;28;20037;-65
2022/09/07 01:39:51;;;;;;;11.18;3.22;;;;;;;;;;5025497;28;20103;-66
2022/09/07 01:42:19;;;;;;;12.60;2.67;;;;;;;;;;5013385;28;20422;-65
2022/09/07 01:44:47;;;;;;;13.20;2.95;;;;;;;;;;5026376;28;20032;-65
2022/09/07 01:47:17;;;;;;;10.80;2.80;;;;;;;;;;5010497;28;20463;-65
2022/09/07 01:49:47;;;;;;;10.98;2.53;;;;;;;;;;5025326;28;20025;-65
2022/09/07 01:52:22;;;;;;;11.02;2.25;;;;;;;;;;5024626;28;20121;-65
2022/09/07 01:54:52;;;;;;;9.95;2.40;;;;;;;;;;5025076;28;20037;-65
2022/09/07 01:57:22;;;;;;;10.02;2.20;;;;;;;;;;5024439;28;20044;-65
2022/09/07 02:00:09;;;;;;;10.20;2.78;;;;;;;;;;5005423;28;20387;-64
2022/09/07 02:02:35;;;;;;;;;;;;;;;;;;5025301;28;20085;-65
2022/09/07 02:05:05;;;;;;;10.80;2.75;;;;;;;;;;5023163;28;20191;-65
2022/09/07 02:07:50;;;;;;;10.93;2.80;;;;;;;;;;5008588;28;20087;-64
2022/09/07 02:10:20;;;;;;;9.07;2.78;;;;;;;;;;5028678;28;20495;-65
2022/09/07 02:12:46;;;;;;;8.95;2.50;;;;;;;;;;5021169;28;20155;-64
2022/09/07 02:15:29;;;;;;;8.38;2.15;;;;;;;;;;5022330;28;20554;-64
2022/09/07 02:17:59;;;;;;;10.57;2.58;;;;;;;;;;5001782;28;20053;-65
2022/09/07 02:20:28;;;;;;;9.63;2.42;;;;;;;;;;5022015;28;20134;-65
2022/09/07 02:22:56;;;;;;;7.60;2.25;;;;;;;;;;5022373;28;20033;-65
2022/09/07 02:25:24;;;;;;;11.40;2.40;;;;;;;;;;5023746;28;20207;-65
2022/09/07 02:28:04;;;;;;;7.15;2.17;;;;;;;;;;5022196;28;20053;-65
2022/09/07 02:30:30;;;;;;;10.20;2.22;;;;;;;;;;5027053;28;20031;-64
2022/09/07 02:32:56;;;;;;;9.30;2.03;;;;;;;;;;5005768;28;20044;-64
2022/09/07 02:35:22;;;;;;;8.38;2.33;;;;;;;;;;5021973;28;20026;-65
2022/09/07 02:37:49;;;;;;;9.65;2.50;;;;;;;;;;5020090;28;20036;-65
2022/09/07 02:40:15;;;;;;;10.00;2.03;;;;;;;;;;5025488;28;20037;-64
2022/09/07 02:42:42;;;;;;;8.73;2.28;;;;;;;;;;5025564;28;20040;-64
2022/09/07 02:45:10;;;;;;;9.95;2.03;;;;;;;;;;5026049;28;20016;-64
2022/09/07 02:48:01;;;;;;;8.70;1.98;;;;;;;;;;5022556;28;20037;-64
2022/09/07 02:50:39;;;;;;;8.13;1.80;;;;;;;;;;5027176;28;20107;-64
2022/09/07 02:53:08;;;;;;;10.55;2.50;;;;;;;;;;5004830;28;20061;-64
2022/09/07 02:55:37;;;;;;;10.98;2.17;;;;;;;;;;5024322;28;20029;-64
2022/09/07 02:58:06;;;;;;;9.80;2.15;;;;;;;;;;5003940;28;20058;-65
2022/09/07 03:00:35;;;;;;;8.23;2.10;;;;;;;;;;5026618;28;20619;-65
2022/09/07 03:03:22;;;;;;;8.18;2.08;;;;;;;;;;5023641;28;20036;-65
2022/09/07 03:05:57;;;;;;;8.10;1.75;;;;;;;;;;5021144;28;20021;-65
2022/09/07 03:08:25;;;;;;;7.18;1.80;;;;;;;;;;5025596;28;20033;-65
2022/09/07 03:10:52;;;;;;;12.40;1.85;;;;;;;;;;5022163;28;20044;-64
2022/09/07 03:13:21;;;;;;;8.82;2.20;;;;;;;;;;5026093;28;20040;-65
2022/09/07 03:15:47;;;;;;;8.40;2.08;;;;;;;;;;5007069;28;20033;-64
2022/09/07 03:18:14;;;;;;;10.65;2.30;;;;;;;;;;5011457;28;20043;-66
2022/09/07 03:20:40;;;;;;;10.10;1.95;;;;;;;;;;5009932;28;20132;-65
2022/09/07 03:23:06;;;;;;;7.15;1.85;;;;;;;;;;5022646;28;20559;-65
2022/09/07 03:25:32;;;;;;;7.85;1.92;;;;;;;;;;5026744;28;20135;-64
2022/09/07 03:27:58;;;;;;;7.28;1.77;;;;;;;;;;5007608;28;20028;-65
2022/09/07 03:30:24;;;;;;;8.45;1.80;;;;;;;;;;5027308;28;20037;-64
2022/09/07 03:32:50;;;;;;;6.13;1.77;;;;;;;;;;5025291;28;20106;-64
2022/09/07 03:35:17;;;;;;;7.93;2.00;;;;;;;;;;5011631;28;20025;-66
2022/09/07 03:37:43;;;;;;;6.40;1.70;;;;;;;;;;5027339;28;20129;-64
2022/09/07 03:40:10;;;;;;;8.63;1.92;;;;;;;;;;5004183;28;20021;-64
2022/09/07 03:42:37;;;;;;;7.97;1.90;;;;;;;;;;5003426;28;20562;-64
2022/09/07 03:45:03;;;;;;;6.93;2.00;;;;;;;;;;5022351;28;21123;-64
2022/09/07 03:47:29;;;;;;;8.10;2.08;;;;;;;;;;5025560;28;20122;-65
2022/09/07 03:49:55;;;;;;;7.68;1.80;;;;;;;;;;5003494;28;20060;-67
2022/09/07 03:52:21;;;;;;;8.75;2.35;;;;;;;;;;5021477;28;20494;-66
2022/09/07 03:54:47;;;;;;;7.35;2.10;;;;;;;;;;5004925;28;20037;-65
2022/09/07 03:57:14;;;;;;;10.32;1.80;;;;;;;;;;5022807;28;20492;-66
2022/09/07 03:59:40;;;;;;;9.15;1.90;;;;;;;;;;5006054;28;20036;-65
2022/09/07 04:02:06;;;;;;;10.23;2.00;;;;;;;;;;5022092;28;20024;-65
2022/09/07 04:04:32;;;;;;;8.73;1.95;;;;;;;;;;5027349;28;20067;-65
2022/09/07 04:06:58;;;;;;;6.90;1.90;;;;;;;;;;5023376;28;20278;-65
2022/09/07 04:09:24;;;;;;;10.20;2.13;;;;;;;;;;5023251;28;20021;-65
2022/09/07 04:11:50;;;;;;;11.05;2.50;;;;;;;;;;5024829;28;20029;-65
2022/09/07 04:14:16;;;;;;;9.32;2.10;;;;;;;;;;5010183;28;20458;-67
2022/09/07 04:16:44;;;;;;;7.38;2.00;;;;;;;;;;5025978;28;20052;-65
2022/09/07 04:19:10;;;;;;;9.45;2.10;;;;;;;;;;5020403;28;20025;-65
2022/09/07 04:21:36;;;;;;;7.90;2.05;;;;;;;;;;5027266;28;20086;-65
2022/09/07 04:24:02;;;;;;;9.98;2.30;;;;;;;;;;5021104;28;20167;-66
2022/09/07 04:26:33;;;;;;;11.38;2.35;;;;;;;;;;5025444;28;20037;-66
2022/09/07 04:29:02;;;;;;;8.98;2.30;;;;;;;;;;5023397;28;20570;-65
2022/09/07 04:31:29;;;;;;;9.60;2.08;;;;;;;;;;5022784;28;20052;-65
2022/09/07 04:33:55;;;;;;;7.05;2.17;;;;;;;;;;5018968;28;20112;-65
2022/09/07 04:36:23;;;;;;;10.00;2.33;;;;;;;;;;5021523;28;20901;-65
2022/09/07 04:38:53;;;;;;;10.38;2.40;;;;;;;;;;5021841;28;20052;-65
2022/09/07 04:41:19;;;;;;;12.27;2.40;;;;;;;;;;5023617;28;20033;-65
2022/09/07 04:43:47;;;;;;;11.18;2.67;;;;;;;;;;5022101;28;20021;-65
2022/09/07 04:46:13;;;;;;;14.73;2.90;;;;;;;;;;5023704;28;20029;-65
2022/09/07 04:48:39;;;;;;;12.07;2.72;;;;;;;;;;5026350;28;20210;-64
2022/09/07 04:51:05;;;;;;;9.75;2.53;;;;;;;;;;5019872;28;21971;-65
2022/09/07 04:53:32;;;;;;;10.38;3.13;;;;;;;;;;5004920;28;20144;-65
2022/09/07 04:55:58;;;;;;;10.18;2.75;;;;;;;;;;5002306;28;20034;-64
2022/09/07 04:58:25;;;;;;;9.73;2.70;;;;;;;;;;5007770;28;20366;-64
2022/09/07 05:00:51;;;;;;;11.77;2.63;;;;;;;;;;4999887;28;20537;-66
2022/09/07 05:03:17;;;;;;;9.98;2.35;;;;;;;;;;5004322;28;20124;-66
2022/09/07 05:05:43;;;;;;;16.98;2.65;;;;;;;;;;5010328;28;20471;-66
2022/09/07 05:08:10;;;;;;;8.35;2.13;;;;;;;;;;5000754;28;20256;-66
2022/09/07 05:10:36;;;;;;;9.60;2.28;;;;;;;;;;5005781;28;20018;-66
2022/09/07 05:13:02;;;;;;;13.65;2.75;;;;;;;;;;5002461;28;20281;-66
2022/09/07 05:15:29;;;;;;;9.48;2.40;;;;;;;;;;5008469;28;20065;-66
2022/09/07 05:17:55;;;;;;;10.02;2.42;;;;;;;;;;5009693;28;20068;-66
2022/09/07 05:20:21;;;;;;;7.43;2.00;;;;;;;;;;5008180;28;20132;-66
2022/09/07 05:22:48;;;;;;;11.45;2.20;;;;;;;;;;5003344;28;20037;-66
2022/09/07 05:25:14;;;;;;;7.97;2.58;;;;;;;;;;5007364;28;20037;-65
2022/09/07 05:27:40;;;;;;;9.13;2.20;;;;;;;;;;5013129;28;20056;-65
2022/09/07 05:30:06;;;;;;;9.07;2.45;;;;;;;;;;5006777;28;20658;-65
2022/09/07 05:32:32;;;;;;;12.85;2.50;;;;;;;;;;5008735;28;20049;-64
2022/09/07 05:34:59;;;;;;;8.50;2.60;;;;;;;;;;5004080;28;20106;-64
2022/09/07 05:37:25;;;;;;;8.82;2.35;;;;;;;;;;5009348;28;20096;-66
2022/09/07 05:39:53;;;;;;;9.05;2.33;;;;;;;;;;5000460;28;20030;-65
2022/09/07 05:42:19;;;;;;;10.00;2.20;;;;;;;;;;5010265;28;20028;-65
2022/09/07 05:44:45;;;;;;;11.43;2.25;;;;;;;;;;5003908;28;20026;-65
2022/09/07 05:47:12;;;;;;;12.32;2.40;;;;;;;;;;5008368;28;20509;-65
2022/09/07 05:49:38;;;;;;;8.32;1.85;;;;;;;;;;5008623;28;20026;-65
2022/09/07 05:52:04;;;;;;;7.72;2.30;;;;;;;;;;5010979;28;20029;-64
2022/09/07 05:54:30;;;;;;;12.00;2.25;;;;;;;;;;5007679;28;20037;-65
2022/09/07 05:56:56;;;;;;;9.02;2.20;;;;;;;;;;5001996;28;20037;-64
2022/09/07 05:59:22;;;;;;;13.38;2.38;;;;;;;;;;5005673;28;20040;-65
2022/09/07 06:01:48;;;;;;;8.48;2.42;;;;;;;;;;5004306;28;20843;-65
2022/09/07 06:04:14;;;;;;;11.40;2.40;;;;;;;;;;5008075;28;20033;-65
2022/09/07 06:06:41;;;;;;;10.82;2.50;;;;;;;;;;5006468;28;20026;-65
2022/09/07 06:09:10;;;;;;;11.73;2.60;;;;;;;;;;5002161;28;20029;-65
2022/09/07 06:11:36;;;;;;;8.75;2.38;;;;;;;;;;5004063;28;20116;-65
2022/09/07 06:14:02;;;;;;;10.88;2.40;;;;;;;;;;5003466;28;20057;-65
2022/09/07 06:16:28;;;;;;;10.68;2.30;;;;;;;;;;5001312;28;20634;-64
2022/09/07 06:18:54;;;;;;;10.77;2.17;;;;;;;;;;5001899;28;20213;-67
2022/09/07 06:21:22;;;;;;;10.25;2.38;;;;;;;;;;5004470;28;20139;-65
2022/09/07 06:23:48;;;;;;;9.57;2.30;;;;;;;;;;5002995;28;20036;-68
2022/09/07 06:26:15;;;;;;;9.75;2.33;;;;;;;;;;5006678;28;20064;-64
2022/09/07 06:28:45;;;;;;;10.23;2.38;;;;;;;;;;5006471;28;20111;-64
2022/09/07 06:31:13;;;;;;;14.93;2.28;;;;;;;;;;5007038;28;20044;-64
2022/09/07 06:33:40;;;;;;;11.43;2.47;;;;;;;;;;5001650;28;20474;-65
2022/09/07 06:36:07;;;;;;;10.63;2.60;;;;;;;;;;5000800;28;20863;-64
2022/09/07 06:38:38;;;;;;;11.50;2.65;;;;;;;;;;5000547;28;20112;-65
2022/09/07 06:41:06;;;;;;;9.25;2.28;;;;;;;;;;5003369;28;20041;-65
2022/09/07 06:43:32;;;;;;;10.63;2.30;;;;;;;;;;5007767;28;20018;-65
2022/09/07 06:45:58;;;;;;;12.23;2.72;;;;;;;;;;5000106;28;20030;-65
2022/09/07 06:48:24;;;;;;;10.45;2.50;;;;;;;;;;5005648;28;20132;-66
2022/09/07 06:50:57;;;;;;;14.68;2.70;;;;;;;;;;4996960;28;20044;-65
2022/09/07 06:53:24;;;;;;;11.43;2.45;;;;;;;;;;5014773;28;20072;-66
2022/09/07 06:55:51;;;;;;;16.10;2.95;;;;;;;;;;5025668;28;20088;-65
2022/09/07 06:58:17;;;;;;;11.27;2.47;;;;;;;;;;5027886;28;20430;-64
2022/09/07 07:00:43;;;;;;;11.30;2.95;;;;;;;;;;5028993;28;20480;-65
2022/09/07 07:03:09;;;;;;;9.43;2.85;;;;;;;;;;5008856;28;20048;-65
2022/09/07 07:05:35;;;;;;;13.13;2.72;;;;;;;;;;5034004;28;20032;-66
2022/09/07 07:08:01;;;;;;;13.23;2.95;;;;;;;;;;5008163;28;20033;-66
2022/09/07 07:10:28;;;;;;;14.05;3.30;;;;;;;;;;5028852;28;20032;-65
2022/09/07 07:12:57;;;;;;;16.35;3.60;;;;;;;;;;5028524;28;20170;-66
2022/09/07 07:15:29;;;;;;;10.90;2.85;;;;;;;;;;5028447;28;20117;-65
2022/09/07 07:17:56;;;;;;;13.18;3.13;;;;;;;;;;5025009;28;20405;-65
2022/09/07 07:20:22;;;;;;;17.33;4.07;;;;;;;;;;5013863;28;20400;-65
2022/09/07 07:22:51;;;;;;;15.52;4.10;;;;;;;;;;5027182;28;20027;-65
2022/09/07 07:25:18;;;;;;;17.17;4.40;;;;;;;;;;5024817;28;20111;-65
2022/09/07 07:27:44;;;;;;;20.73;3.45;;;;;;;;;;5028323;28;20041;-65
2022/09/07 07:30:12;;;;;;;24.85;4.88;;;;;;;;;;5027053;28;20470;-65
2022/09/07 07:32:38;;;;;;;16.85;3.65;;;;;;;;;;5013813;28;20154;-65
2022/09/07 07:35:05;;;;;;;15.45;3.60;;;;;;;;;;5021726;28;20033;-65
2022/09/07 07:37:31;;;;;;;14.65;3.30;;;;;;;;;;5035952;28;20097;-65
2022/09/07 07:39:59;;;;;;;14.68;2.80;;;;;;;;;;5006981;28;20171;-65
2022/09/07 07:42:25;;;;;;;14.52;3.88;;;;;;;;;;5013829;28;20534;-65
2022/09/07 07:44:51;;;;;;;15.60;2.80;;;;;;;;;;5028443;28;20021;-65
2022/09/07 07:47:17;;;;;;;14.07;3.05;;;;;;;;;;5014715;28;20379;-66
2022/09/07 07:49:44;;;;;;;13.88;2.70;;;;;;;;;;5015227;28;20132;-65
2022/09/07 07:52:10;;;;;;;13.93;2.63;;;;;;;;;;5029425;28;20032;-65
2022/09/07 07:54:37;;;;;;;12.15;2.55;;;;;;;;;;5031018;28;20033;-66
2022/09/07 07:57:04;;;;;;;15.63;2.60;;;;;;;;;;5024635;28;20037;-66
2022/09/07 07:59:30;;;;;;;17.83;3.20;;;;;;;;;;5009472;28;20621;-66
2022/09/07 08:01:56;;;;;;;14.30;2.85;;;;;;;;;;5033492;28;20469;-66
2022/09/07 08:04:22;;;;;;;15.07;2.90;;;;;;;;;;5033817;28;20776;-65
2022/09/07 08:06:48;;;;;;;14.70;2.70;;;;;;;;;;5012011;28;20186;-65
2022/09/07 08:09:14;;;;;;;12.95;3.17;;;;;;;;;;5032907;28;20021;-65
2022/09/07 08:11:41;;;;;;;13.07;3.03;;;;;;;;;;5031711;28;20501;-65
2022/09/07 08:14:07;;;;;;;12.20;2.92;;;;;;;;;;5029490;28;20064;-65
2022/09/07 08:16:34;;;;;;;14.63;3.05;;;;;;;;;;5034271;28;20029;-65
2022/09/07 08:19:01;;;;;;;14.85;2.78;;;;;;;;;;5027731;28;20078;-65
2022/09/07 08:21:27;;;;;;;14.25;2.58;;;;;;;;;;5020912;28;20025;-65
2022/09/07 08:23:53;;;;;;;18.52;3.13;;;;;;;;;;5027218;28;20470;-66
2022/09/07 08:26:19;;;;;;;18.00;2.63;;;;;;;;;;5016998;28;20581;-66
2022/09/07 08:28:46;;;;;;;16.25;3.13;;;;;;;;;;5034232;28;20021;-67
2022/09/07 08:31:14;;;;;;;11.93;2.70;;;;;;;;;;5028531;28;20040;-65
2022/09/07 08:33:40;;;;;;;13.55;2.58;;;;;;;;;;5025969;28;20037;-66
2022/09/07 08:36:17;;;;;;;12.10;2.50;;;;;;;;;;5012514;28;20029;-65
2022/09/07 08:38:43;;;;;;;12.50;2.78;;;;;;;;;;5029056;28;20024;-67
2022/09/07 08:41:27;;;;;;;11.30;2.55;;;;;;;;;;5021856;28;20091;-65
2022/09/07 08:44:05;;;;;;;14.43;2.75;;;;;;;;;;5022954;28;20039;-68
2022/09/07 08:46:46;;;;;;;12.02;2.30;;;;;;;;;;5035102;28;20494;-66
2022/09/07 08:49:35;;;;;;;12.43;2.20;;;;;;;;;;5011730;28;20040;-66
2022/09/07 08:52:03;;;;;;;12.27;2.50;;;;;;;;;;5018196;28;20052;-66
2022/09/07 08:54:29;;;;;;;11.88;2.25;;;;;;;;;;5031294;28;20063;-66
2022/09/07 08:56:57;;;;;;;9.38;2.08;;;;;;;;;;5010241;28;20044;-66
2022/09/07 08:59:45;;;;;;;14.25;2.67;;;;;;;;;;5028824;28;20035;-66
2022/09/07 09:02:13;;;;;;;10.30;2.50;;;;;;;;;;5033417;28;20454;-66
2022/09/07 09:04:41;;;;;;;10.68;2.42;;;;;;;;;;5042062;28;20025;-66
2022/09/07 09:07:07;;;;;;;13.93;2.50;;;;;;;;;;5011238;28;20123;-66
2022/09/07 09:09:52;;;;;;;9.05;2.05;;;;;;;;;;5033356;28;20032;-66
2022/09/07 09:12:32;;;;;;;12.70;2.65;;;;;;;;;;5026255;28;22260;-66
2022/09/07 09:15:21;;;;;;;10.52;2.13;;;;;;;;;;5013960;28;20558;-66
2022/09/07 09:17:52;;;;;;;12.88;2.30;;;;;;;;;;5008940;28;20037;-66
2022/09/07 09:20:18;;;;;;;12.63;2.15;;;;;;;;;;5030511;28;20529;-66
2022/09/07 09:22:44;;;;;;;11.48;2.30;;;;;;;;;;5030625;28;20265;-66
2022/09/07 09:25:32;;;;;;;11.90;2.10;;;;;;;;;;5035410;28;20025;-66
2022/09/07 09:27:58;;;;;;;10.45;2.40;;;;;;;;;;5030587;28;20049;-66
2022/09/07 09:30:25;;;;;;;21.20;2.20;;;;;;;;;;5034949;28;20019;-66
2022/09/07 09:33:11;;;;;;;10.40;2.25;;;;;;;;;;5026015;28;20033;-66
2022/09/07 09:35:38;;;;;;;11.05;2.03;;;;;;;;;;5029540;28;20032;-66
2022/09/07 09:38:05;;;;;;;11.82;2.33;;;;;;;;;;5025288;28;20048;-66
2022/09/07 09:40:35;;;;;;;11.98;2.58;;;;;;;;;;5034847;28;20028;-66
2022/09/07 09:43:05;;;;;;;11.57;2.25;;;;;;;;;;5023209;28;20364;-66
2022/09/07 09:45:35;;;;;;;11.80;2.38;;;;;;;;;;5032801;28;20028;-66
2022/09/07 09:48:02;;;;;;;10.02;2.22;;;;;;;;;;5030655;28;20035;-65
2022/09/07 09:50:34;;;;;;;10.60;2.35;;;;;;;;;;5029870;28;20029;-66
2022/09/07 09:53:00;;;;;;;13.73;2.60;;;;;;;;;;5020643;28;20049;-65
2022/09/07 09:55:35;;;;;;;24.15;2.90;;;;;;;;;;5031991;28;20033;-65
2022/09/07 09:58:02;;;;;;;14.48;2.75;;;;;;;;;;5024348;28;20041;-65
2022/09/07 10:00:30;;;;;;;14.25;2.40;;;;;;;;;;5033981;28;20514;-65
2022/09/07 10:03:05;;;;;;;11.93;2.30;;;;;;;;;;5029646;28;20055;-66
2022/09/07 10:05:41;;;;;;;12.82;2.65;;;;;;;;;;5035887;28;20108;-68
2022/09/07 10:08:28;;;;;;;11.00;2.10;;;;;;;;;;5033204;28;20033;-66
2022/09/07 10:11:02;;;;;;;13.02;2.17;;;;;;;;;;5030481;28;20025;-66
2022/09/07 10:13:30;;;;;;;13.10;2.30;;;;;;;;;;5032618;28;20106;-65
2022/09/07 10:15:57;;;;;;;10.13;2.03;;;;;;;;;;5034432;28;20044;-66
2022/09/07 10:18:44;;;;;;;10.77;2.03;;;;;;;;;;5020208;28;20021;-66
2022/09/07 10:21:13;;;;;;;10.68;2.58;;;;;;;;;;5034454;28;20387;-66
2022/09/07 10:23:39;;;;;;;10.02;2.20;;;;;;;;;;5020295;28;20032;-66
2022/09/07 10:26:35;;;;;;;14.52;2.80;;;;;;;;;;5037797;28;22688;-66
2022/09/07 10:29:28;;;;;;;12.20;2.80;;;;;;;;;;4941481;28;20038;-65
2022/09/07 10:31:59;;;;;;;11.70;2.45;;;;;;;;;;4937499;28;20508;-65
2022/09/07 10:34:38;;;;;;;13.95;2.55;;;;;;;;;;4948850;28;20320;-66
2022/09/07 10:37:09;;;;;;;10.45;2.30;;;;;;;;;;4942261;28;20125;-66
2022/09/07 10:39:42;;;;;;;14.75;2.78;;;;;;;;;;4946300;28;20047;-66
2022/09/07 10:42:34;;;;;;;13.38;2.50;;;;;;;;;;4942353;28;20646;-65
2022/09/07 10:45:19;;;;;;;14.27;3.05;;;;;;;;;;4938609;28;20518;-65
2022/09/07 10:47:54;;;;;;;13.80;2.30;;;;;;;;;;4945073;28;20491;-66
2022/09/07 10:50:32;;;;;;;14.07;2.90;;;;;;;;;;4945702;28;20038;-65
2022/09/07 10:53:21;;;;;;;10.50;2.58;;;;;;;;;;4941346;28;20051;-65
2022/09/07 10:56:10;;;;;;;12.15;2.40;;;;;;;;;;4940422;28;20406;-65
2022/09/07 10:58:45;;;;;;;10.68;2.50;;;;;;;;;;4933465;28;20058;-65
2022/09/07 11:01:20;;;;;;;11.18;2.60;;;;;;;;;;4944694;28;20480;-67
2022/09/07 11:03:46;;;;;;;10.82;2.25;;;;;;;;;;4942338;28;20117;-67
2022/09/07 11:06:18;;;;;;;10.15;2.30;;;;;;;;;;4999352;28;20040;-66
2022/09/07 11:08:44;;;;;;;12.18;2.63;;;;;;;;;;5009056;28;20571;-68
2022/09/07 11:11:18;;;;;;;11.35;2.50;;;;;;;;;;5007570;28;20033;-68
2022/09/07 11:13:47;;;;;;;9.45;2.15;;;;;;;;;;5006456;28;20029;-66
2022/09/07 11:16:36;;;;;;;10.43;2.40;;;;;;;;;;5010997;28;20086;-67
2022/09/07 11:19:06;;;;;;;14.30;2.30;;;;;;;;;;4991823;28;20490;-67
2022/09/07 11:21:56;;;;;;;9.90;2.13;;;;;;;;;;5016537;28;20044;-66
2022/09/07 11:24:27;;;;;;;14.75;2.40;;;;;;;;;;4917606;28;20571;-66
2022/09/07 11:26:55;;;;;;;11.73;2.60;;;;;;;;;;4913980;28;20043;-65
2022/09/07 11:29:31;;;;;;;10.50;2.40;;;;;;;;;;4919126;28;20053;-67
2022/09/07 11:31:57;;;;;;;;;;;;;;;;;;4916666;28;20035;-66
2022/09/07 11:34:33;;;;;;;12.32;2.50;;;;;;;;;;4902540;28;19937;-68
2022/09/07 11:37:07;;;;;;;11.02;2.50;;;;;;;;;;4917702;28;20118;-66
2022/09/07 11:39:40;;;;;;;11.45;2.22;;;;;;;;;;4921654;28;20035;-68
2022/09/07 11:42:13;;;;;;;11.93;2.15;;;;;;;;;;4920491;28;20051;-66
2022/09/07 11:44:44;;;;;;;13.52;2.17;;;;;;;;;;4924479;28;20337;-66
2022/09/07 11:47:24;;;;;;;11.90;2.00;;;;;;;;;;4908816;28;20478;-66
2022/09/07 11:49:54;;;;;;;11.13;2.25;;;;;;;;;;4918295;28;20038;-66
2022/09/07 11:52:26;;;;;;;14.93;2.15;;;;;;;;;;4923432;28;20530;-67
2022/09/07 11:54:57;;;;;;;10.63;1.98;;;;;;;;;;4917395;28;20051;-65
2022/09/07 11:57:29;;;;;;;10.75;2.38;;;;;;;;;;4918551;28;20035;-65
2022/09/07 12:00:17;;;;;;;11.20;2.30;;;;;;;;;;4901402;28;20757;-65
2022/09/07 12:02:56;;;;;;;11.23;2.38;;;;;;;;;;5011223;28;20099;-65
2022/09/07 12:05:54;;;;;;;13.63;2.50;;;;;;;;;;5007759;28;20037;-66
2022/09/07 12:08:33;;;;;;;13.40;2.35;;;;;;;;;;4914384;28;20130;-65
2022/09/07 12:11:05;;;;;;;13.05;2.25;;;;;;;;;;4923085;28;20051;-66
2022/09/07 12:13:55;;;;;;;18.45;2.25;;;;;;;;;;4901636;28;20134;-66
2022/09/07 12:16:50;;;;;;;12.13;2.38;;;;;;;;;;4914596;28;20046;-66
2022/09/07 12:19:17;;;;;;;10.88;2.20;;;;;;;;;;4920857;28;20036;-67
2022/09/07 12:21:53;;;;;;;10.75;2.28;;;;;;;;;;4922105;28;20047;-66
2022/09/07 12:24:42;;;;;;;12.65;2.67;;;;;;;;;;4919572;28;20063;-66
2022/09/07 12:27:11;;;;;;;12.80;1.95;;;;;;;;;;4908536;28;20059;-65
2022/09/07 12:29:37;;;;;;;12.27;2.20;;;;;;;;;;4920096;28;20639;-65
2022/09/07 12:32:04;;;;;;;11.98;2.40;;;;;;;;;;4911904;28;20486;-66
2022/09/07 12:34:30;;;;;;;10.88;2.00;;;;;;;;;;4904925;29;20209;-66
2022/09/07 12:36:59;;;;;;;13.38;2.58;;;;;;;;;;4913733;28;20047;-66
2022/09/07 12:39:31;;;;;;;10.80;2.15;;;;;;;;;;4905766;29;20035;-66
2022/09/07 12:42:08;;;;;;;10.10;2.17;;;;;;;;;;4914492;28;20035;-66
2022/09/07 12:44:35;;;;;;;13.00;2.30;;;;;;;;;;4975335;28;20033;-65
2022/09/07 12:47:02;;;;;;;10.20;2.05;;;;;;;;;;5000301;28;20057;-68
2022/09/07 12:49:40;;;;;;;10.90;2.05;;;;;;;;;;5004879;28;20060;-67
2022/09/07 12:52:26;;;;;;;12.43;1.90;;;;;;;;;;5004948;28;20577;-67
2022/09/07 12:54:52;;;;;;;7.63;1.73;;;;;;;;;;4987165;28;20047;-66
2022/09/07 12:57:24;;;;;;;9.23;1.75;;;;;;;;;;5026194;28;20033;-67
2022/09/07 13:00:00;;;;;;;8.82;1.30;;;;;;;;;;5020773;28;20044;-67
2022/09/07 13:02:26;;;;;;;9.18;1.55;;;;;;;;;;5025253;28;20115;-66
2022/09/07 13:05:11;;;;;;;7.88;1.30;;;;;;;;;;5028387;28;20029;-66
2022/09/07 13:07:37;;;;;;;;;;;;;;;;;;5025279;28;20159;-67
2022/09/07 13:10:26;;;;;;;7.45;1.20;;;;;;;;;;5022422;28;20317;-67
2022/09/07 13:12:53;;;;;;;11.07;1.80;;;;;;;;;;5021402;28;20863;-66
2022/09/07 13:15:33;;;;;;;7.72;1.45;;;;;;;;;;5014294;28;20028;-67
2022/09/07 13:17:59;;;;;;;7.18;1.10;;;;;;;;;;5018945;28;20075;-66
2022/09/07 13:20:30;;;;;;;7.13;1.20;;;;;;;;;;5025548;28;20033;-66
2022/09/07 13:23:07;;;;;;;10.32;1.23;;;;;;;;;;5023758;28;20457;-67
2022/09/07 13:25:33;;;;;;;11.20;1.60;;;;;;;;;;5035870;28;20024;-69
2022/09/07 13:28:17;;;;;;;6.93;1.17;;;;;;;;;;5028259;28;20035;-66
2022/09/07 13:30:47;;;;;;;10.43;1.52;;;;;;;;;;5034346;28;20044;-67
2022/09/07 13:33:33;;;;;;;5.55;1.15;;;;;;;;;;5029393;28;20087;-67
2022/09/07 13:36:03;;;;;;;6.70;1.10;;;;;;;;;;5010245;28;20691;-68
2022/09/07 13:38:31;;;;;;;5.15;1.08;;;;;;;;;;5020713;28;20911;-66
2022/09/07 13:41:03;;;;;;;5.47;1.17;;;;;;;;;;5030460;28;20032;-66
2022/09/07 13:43:30;;;;;;;5.68;0.95;;;;;;;;;;5033976;28;20168;-67
2022/09/07 13:46:00;;;;;;;6.43;1.10;;;;;;;;;;5027826;28;20040;-67
2022/09/07 13:48:26;;;;;;;8.95;1.10;;;;;;;;;;5034564;28;20078;-66
2022/09/07 13:50:53;;;;;;;5.38;1.13;;;;;;;;;;5007117;28;20118;-67
2022/09/07 13:53:19;;;;;;;6.25;1.10;;;;;;;;;;5038763;28;20074;-65
2022/09/07 13:55:54;;;;;;;5.00;1.08;;;;;;;;;;5016581;28;20068;-65
2022/09/07 13:58:26;;;;;;;5.28;1.05;;;;;;;;;;5016564;28;20036;-66
2022/09/07 14:00:58;;;;;;;8.55;1.10;;;;;;;;;;5013518;28;20122;-66
2022/09/07 14:03:25;;;;;;;8.43;1.50;;;;;;;;;;5032174;28;20025;-66
2022/09/07 14:06:10;;;;;;;6.50;1.50;;;;;;;;;;5024691;28;20454;-66
2022/09/07 14:08:37;;;;;;;6.15;1.05;;;;;;;;;;5031706;28;20067;-65
2022/09/07 14:11:03;;;;;;;5.30;1.00;;;;;;;;;;5022152;28;20022;-66
2022/09/07 14:13:29;;;;;;;6.65;1.15;;;;;;;;;;5013687;28;20074;-66
2022/09/07 14:15:55;;;;;;;7.05;1.00;;;;;;;;;;5021955;28;20037;-66
2022/09/07 14:18:29;;;;;;;4.93;1.02;;;;;;;;;;5033165;28;20036;-66
2022/09/07 14:20:56;;;;;;;5.85;1.10;;;;;;;;;;5030351;28;20028;-66
2022/09/07 14:23:40;;;;;;;6.05;1.15;;;;;;;;;;5036589;28;20374;-66
2022/09/07 14:26:15;;;;;;;7.63;1.20;;;;;;;;;;5033199;28;20104;-67
2022/09/07 14:28:44;;;;;;;5.72;1.15;;;;;;;;;;5034426;28;20437;-67
2022/09/07 14:31:11;;;;;;;7.78;1.10;;;;;;;;;;5032667;28;20115;-67
2022/09/07 14:33:38;;;;;;;5.25;1.13;;;;;;;;;;5013287;28;20029;-68
2022/09/07 14:36:04;;;;;;;8.90;1.45;;;;;;;;;;5027982;28;20542;-69
2022/09/07 14:38:32;;;;;;;10.38;1.60;;;;;;;;;;5034508;28;20496;-66
2022/09/07 14:41:04;;;;;;;7.03;1.25;;;;;;;;;;5007300;28;20120;-66
2022/09/07 14:43:32;;;;;;;7.03;1.40;;;;;;;;;;5026986;28;20026;-67
2022/09/07 14:46:17;;;;;;;6.43;1.35;;;;;;;;;;5006949;28;20535;-67
2022/09/07 14:48:44;;;;;;;6.97;1.27;;;;;;;;;;5003352;28;20033;-65
2022/09/07 14:51:18;;;;;;;8.65;1.48;;;;;;;;;;5016266;28;20503;-67
2022/09/07 14:53:49;;;;;;;8.55;1.55;;;;;;;;;;5030522;28;20495;-66